Time;durP1;ratioP1;P1;durP2;ratioP2;P2;SDS_P1;SDS_P2;PMS_P1;PMS_P2;Temp;Humidity;BMP_temperature;BMP_pressure;BME280_temperature;BME280_humidity;BME280_pressure;Samples;Min_cycle;Max_cycle;Signal;HPM_P1;HPM_P2
2021/05/08 00:01:58;;;;;;;2.13;1.00;;;6.20;71.40;;;;;;5050653;28;20056;-71
2021/05/08 00:04:28;;;;;;;2.53;1.30;;;6.20;71.50;;;;;;5070755;28;20478;-71
2021/05/08 00:06:56;;;;;;;3.73;1.30;;;6.20;71.60;;;;;;5070720;28;20098;-71
2021/05/08 00:09:23;;;;;;;2.23;1.10;;;6.10;71.70;;;;;;5070327;28;20539;-71
2021/05/08 00:11:53;;;;;;;1.93;1.00;;;6.10;71.70;;;;;;5071952;28;20040;-71
2021/05/08 00:14:20;;;;;;;1.63;0.90;;;6.10;71.80;;;;;;5071150;28;20075;-71
2021/05/08 00:16:46;;;;;;;2.53;0.87;;;6.10;71.70;;;;;;5070985;28;20063;-71
2021/05/08 00:19:13;;;;;;;2.17;1.10;;;6.00;71.70;;;;;;5053804;28;20055;-71
2021/05/08 00:21:40;;;;;;;3.27;1.30;;;6.00;71.80;;;;;;5069523;28;20484;-71
2021/05/08 00:24:08;;;;;;;2.37;1.10;;;5.90;71.80;;;;;;5071446;28;20047;-71
2021/05/08 00:26:34;;;;;;;1.67;0.80;;;5.90;71.90;;;;;;5070438;28;20534;-71
2021/05/08 00:29:01;;;;;;;1.70;1.00;;;5.90;72.00;;;;;;5071603;28;20036;-71
2021/05/08 00:31:28;;;;;;;1.53;0.70;;;5.80;72.10;;;;;;5070151;28;20141;-71
2021/05/08 00:33:54;;;;;;;3.33;1.10;;;5.80;72.20;;;;;;5052880;28;20491;-71
2021/05/08 00:36:21;;;;;;;3.00;1.30;;;5.80;72.30;;;;;;5069242;28;20148;-71
2021/05/08 00:38:51;;;;;;;4.07;1.60;;;5.80;72.40;;;;;;5053956;28;20068;-71
2021/05/08 00:41:21;;;;;;;3.88;1.20;;;5.70;72.40;;;;;;5069834;28;20511;-72
2021/05/08 00:43:56;;;;;;;3.03;1.43;;;5.70;72.50;;;;;;5069812;28;20044;-72
2021/05/08 00:46:25;;;;;;;2.77;1.33;;;5.70;72.70;;;;;;5069759;28;20051;-72
2021/05/08 00:48:54;;;;;;;2.30;1.30;;;5.70;72.90;;;;;;5071446;28;20036;-72
2021/05/08 00:51:21;;;;;;;2.20;1.00;;;5.70;72.90;;;;;;5070189;28;20181;-72
2021/05/08 00:53:48;;;;;;;3.07;1.10;;;5.60;72.90;;;;;;5069217;28;20051;-72
2021/05/08 00:56:16;;;;;;;3.00;1.33;;;5.60;72.90;;;;;;5069777;28;20079;-72
2021/05/08 00:58:44;;;;;;;2.97;1.30;;;5.60;73.00;;;;;;5051859;28;20132;-72
2021/05/08 01:01:10;;;;;;;2.80;1.30;;;5.60;73.10;;;;;;5071298;28;20040;-71
2021/05/08 01:03:37;;;;;;;2.80;1.07;;;5.60;73.20;;;;;;5070110;28;20044;-71
2021/05/08 01:06:04;;;;;;;2.73;1.20;;;5.60;73.30;;;;;;5071241;28;20579;-71
2021/05/08 01:08:31;;;;;;;2.23;1.10;;;5.50;73.30;;;;;;5053789;28;20098;-71
2021/05/08 01:10:59;;;;;;;1.83;1.00;;;5.50;74.00;;;;;;5071070;28;20037;-71
2021/05/08 01:13:32;;;;;;;2.30;1.30;;;5.50;73.40;;;;;;5037830;28;20446;-71
2021/05/08 01:15:59;;;;;;;2.03;0.93;;;5.50;73.60;;;;;;5069797;28;20054;-71
2021/05/08 01:18:27;;;;;;;3.20;1.53;;;5.40;73.60;;;;;;5071353;28;20423;-71
2021/05/08 01:20:54;;;;;;;2.33;1.20;;;5.40;73.70;;;;;;5061967;28;20045;-71
2021/05/08 01:23:21;;;;;;;3.37;1.20;;;5.40;73.70;;;;;;5055992;28;20384;-71
2021/05/08 01:25:49;;;;;;;2.67;1.30;;;5.40;73.80;;;;;;5071034;28;20035;-71
2021/05/08 01:28:16;;;;;;;3.83;1.43;;;5.40;73.90;;;;;;5069663;28;20128;-71
2021/05/08 01:30:43;;;;;;;2.07;1.17;;;5.30;73.90;;;;;;5071003;28;20040;-71
2021/05/08 01:33:13;;;;;;;3.77;1.53;;;5.30;74.00;;;;;;5068952;28;20136;-71
2021/05/08 01:35:41;;;;;;;3.23;1.40;;;5.30;74.10;;;;;;5069459;28;20358;-71
2021/05/08 01:38:09;;;;;;;2.57;1.30;;;5.30;74.20;;;;;;5074692;28;20047;-72
2021/05/08 01:40:40;;;;;;;2.97;1.30;;;5.30;74.30;;;;;;5069068;28;20037;-71
2021/05/08 01:43:14;;;;;;;3.00;1.27;;;5.30;74.30;;;;;;5069174;28;20139;-72
2021/05/08 01:45:41;;;;;;;3.90;1.60;;;5.20;74.10;;;;;;5056152;28;20496;-72
2021/05/08 01:48:10;;;;;;;2.67;1.30;;;5.20;74.20;;;;;;5073378;28;20454;-72
2021/05/08 01:50:37;;;;;;;2.50;1.30;;;5.20;74.30;;;;;;5056460;28;20048;-72
2021/05/08 01:53:04;;;;;;;2.67;1.27;;;5.20;74.30;;;;;;5073364;28;20542;-72
2021/05/08 01:55:32;;;;;;;4.37;1.80;;;5.20;74.40;;;;;;5056639;28;20407;-72
2021/05/08 01:58:10;;;;;;;2.00;1.10;;;5.10;74.50;;;;;;5073175;28;20143;-72
2021/05/08 02:00:44;;;;;;;3.03;1.37;;;5.10;74.60;;;;;;5072375;28;20044;-72
2021/05/08 02:03:12;;;;;;;2.57;1.47;;;5.10;74.70;;;;;;5074263;28;20037;-72
2021/05/08 02:05:41;;;;;;;3.27;1.53;;;5.10;74.80;;;;;;5056638;28;20110;-72
2021/05/08 02:08:15;;;;;;;2.80;1.57;;;5.10;74.80;;;;;;5074322;28;20036;-72
2021/05/08 02:10:44;;;;;;;3.00;1.60;;;5.10;74.90;;;;;;5056206;28;20500;-72
2021/05/08 02:13:13;;;;;;;5.73;1.93;;;5.10;74.90;;;;;;5064626;28;20391;-72
2021/05/08 02:15:43;;;;;;;2.90;1.60;;;5.00;75.60;;;;;;5072976;28;20563;-72
2021/05/08 02:18:10;;;;;;;3.60;1.77;;;5.00;75.00;;;;;;5072576;28;20048;-71
2021/05/08 02:20:40;;;;;;;4.23;2.17;;;5.00;75.10;;;;;;5072606;28;20039;-72
2021/05/08 02:23:10;;;;;;;2.87;1.20;;;5.10;75.20;;;;;;5073802;28;20032;-72
2021/05/08 02:25:40;;;;;;;3.55;1.67;;;5.10;75.10;;;;;;5072890;28;20060;-72
2021/05/08 02:28:09;;;;;;;4.30;1.87;;;5.10;75.10;;;;;;5073356;28;20039;-71
2021/05/08 02:30:38;;;;;;;3.87;1.60;;;5.10;75.10;;;;;;5072833;28;20155;-71
2021/05/08 02:33:06;;;;;;;2.93;1.63;;;5.20;75.00;;;;;;5072105;28;20041;-71
2021/05/08 02:35:35;;;;;;;3.47;1.63;;;5.30;75.00;;;;;;5063940;28;20048;-72
2021/05/08 02:38:03;;;;;;;3.17;1.80;;;5.30;74.90;;;;;;5072204;28;20102;-71
2021/05/08 02:40:33;;;;;;;3.80;1.77;;;5.30;74.90;;;;;;5055790;28;20051;-72
2021/05/08 02:43:02;;;;;;;3.30;1.50;;;5.40;74.90;;;;;;5072978;28;20033;-72
2021/05/08 02:45:29;;;;;;;3.20;1.70;;;5.40;74.90;;;;;;5071617;28;20395;-72
2021/05/08 02:47:56;;;;;;;4.23;1.83;;;5.40;75.00;;;;;;5073442;28;20055;-72
2021/05/08 02:50:27;;;;;;;3.77;2.20;;;5.40;75.10;;;;;;5071782;28;20049;-72
2021/05/08 02:52:58;;;;;;;3.83;2.07;;;5.40;75.20;;;;;;5071725;28;20470;-72
2021/05/08 02:55:26;;;;;;;5.03;2.37;;;5.40;75.20;;;;;;5052217;28;20049;-72
2021/05/08 02:57:53;;;;;;;5.10;2.67;;;5.50;75.20;;;;;;5035282;28;20060;-72
2021/05/08 03:00:20;;;;;;;4.73;2.27;;;5.50;75.20;;;;;;5054788;28;20133;-73
2021/05/08 03:02:47;;;;;;;4.73;2.23;;;5.60;75.80;;;;;;5072028;28;20606;-73
2021/05/08 03:05:14;;;;;;;4.13;2.23;;;5.60;75.20;;;;;;5072089;28;20032;-72
2021/05/08 03:07:45;;;;;;;4.03;2.70;;;5.70;75.20;;;;;;5071103;28;20072;-72
2021/05/08 03:10:12;;;;;;;4.07;2.67;;;5.70;75.20;;;;;;5072600;28;20403;-72
2021/05/08 03:12:40;;;;;;;4.53;2.77;;;5.70;75.20;;;;;;5070843;28;20127;-72
2021/05/08 03:15:07;;;;;;;3.60;2.30;;;5.80;75.20;;;;;;5071820;28;20135;-72
2021/05/08 03:17:34;;;;;;;5.20;3.07;;;5.80;75.30;;;;;;5054864;28;20076;-72
2021/05/08 03:20:01;;;;;;;5.70;2.60;;;5.80;75.30;;;;;;5071358;28;20400;-72
2021/05/08 03:22:29;;;;;;;3.77;2.63;;;5.90;75.30;;;;;;5071786;28;20055;-71
2021/05/08 03:24:58;;;;;;;4.17;2.60;;;5.90;75.40;;;;;;5071285;28;20538;-72
2021/05/08 03:27:26;;;;;;;4.53;3.03;;;5.90;75.30;;;;;;5063650;28;20044;-72
2021/05/08 03:29:52;;;;;;;5.43;2.87;;;5.90;75.30;;;;;;5071217;28;20095;-71
2021/05/08 03:32:20;;;;;;;5.60;2.97;;;5.90;75.40;;;;;;5071062;28;20051;-71
2021/05/08 03:34:48;;;;;;;4.27;2.90;;;5.90;75.50;;;;;;5071128;28;20131;-71
2021/05/08 03:37:16;;;;;;;4.10;2.17;;;5.80;75.50;;;;;;5052656;28;20496;-71
2021/05/08 03:39:45;;;;;;;5.13;2.83;;;5.80;75.70;;;;;;5071175;28;20500;-71
2021/05/08 03:42:11;;;;;;;5.43;2.87;;;5.80;75.80;;;;;;5070928;28;20048;-71
2021/05/08 03:44:38;;;;;;;4.77;2.40;;;5.80;75.80;;;;;;5070956;28;20101;-72
2021/05/08 03:47:04;;;;;;;4.20;2.43;;;5.80;75.90;;;;;;5072129;28;20098;-71
2021/05/08 03:49:31;;;;;;;5.53;3.20;;;5.80;75.90;;;;;;5072048;28;20040;-71
2021/05/08 03:52:01;;;;;;;4.43;3.00;;;5.80;75.90;;;;;;5051012;28;21028;-71
2021/05/08 03:54:28;;;;;;;4.67;2.77;;;5.90;76.00;;;;;;5053964;28;20044;-71
2021/05/08 03:56:55;;;;;;;5.77;3.20;;;5.90;76.00;;;;;;5076316;28;20047;-71
2021/05/08 03:59:22;;;;;;;5.47;3.07;;;5.90;76.00;;;;;;5072073;28;20040;-71
2021/05/08 04:01:49;;;;;;;6.00;3.27;;;5.90;76.00;;;;;;5070237;28;20047;-71
2021/05/08 04:04:15;;;;;;;5.03;2.70;;;5.90;76.60;;;;;;5071694;28;20040;-71
2021/05/08 04:06:42;;;;;;;5.17;3.13;;;5.90;76.10;;;;;;5050734;28;20400;-72
2021/05/08 04:09:10;;;;;;;6.50;3.10;;;5.80;76.20;;;;;;5070351;28;20036;-72
2021/05/08 04:11:38;;;;;;;5.17;2.93;;;5.80;76.90;;;;;;5071863;28;20071;-72
2021/05/08 04:14:05;;;;;;;4.57;3.00;;;5.70;76.40;;;;;;5054142;28;20044;-71
2021/05/08 04:16:32;;;;;;;4.73;2.93;;;5.70;76.50;;;;;;5070382;28;20051;-72
2021/05/08 04:19:01;;;;;;;5.43;3.37;;;5.70;76.60;;;;;;5071465;28;20048;-72
2021/05/08 04:21:27;;;;;;;6.10;3.20;;;5.70;76.70;;;;;;5044848;28;20037;-72
2021/05/08 04:23:54;;;;;;;6.40;3.77;;;5.60;76.70;;;;;;5070426;28;20138;-72
2021/05/08 04:26:20;;;;;;;5.60;3.67;;;5.60;76.80;;;;;;5062779;28;20563;-72
2021/05/08 04:28:47;;;;;;;5.27;3.50;;;5.60;76.80;;;;;;5070311;28;20107;-72
2021/05/08 04:31:14;;;;;;;6.57;3.97;;;5.60;76.80;;;;;;5069655;28;20040;-72
2021/05/08 04:33:41;;;;;;;8.70;4.07;;;5.60;77.40;;;;;;5053184;28;20109;-72
2021/05/08 04:36:07;;;;;;;7.80;4.23;;;5.70;76.80;;;;;;5070627;28;20036;-72
2021/05/08 04:38:38;;;;;;;6.40;3.50;;;5.70;76.80;;;;;;5070529;28;20048;-72
2021/05/08 04:41:04;;;;;;;6.97;3.53;;;5.80;76.80;;;;;;5070096;28;20055;-72
2021/05/08 04:43:31;;;;;;;5.97;3.50;;;5.90;76.70;;;;;;5069950;28;20032;-72
2021/05/08 04:45:58;;;;;;;5.77;3.50;;;5.90;76.60;;;;;;5069563;28;20109;-72
2021/05/08 04:48:26;;;;;;;5.87;3.73;;;6.00;77.20;;;;;;5070726;28;20041;-72
2021/05/08 04:50:53;;;;;;;6.33;3.47;;;6.10;77.10;;;;;;5071627;28;20041;-72
2021/05/08 04:53:21;;;;;;;5.53;3.47;;;6.20;76.40;;;;;;5071766;28;20445;-72
2021/05/08 04:55:48;;;;;;;5.17;3.33;;;6.30;76.20;;;;;;5070627;28;20036;-72
2021/05/08 04:58:15;;;;;;;5.40;3.43;;;6.40;76.10;;;;;;5069840;28;20056;-72
2021/05/08 05:00:42;;;;;;;8.90;4.27;;;6.50;75.90;;;;;;5070857;28;20037;-72
2021/05/08 05:03:09;;;;;;;6.70;3.63;;;6.60;75.80;;;;;;5069891;28;20036;-72
2021/05/08 05:05:36;;;;;;;5.30;3.43;;;6.70;75.70;;;;;;5070566;28;20040;-72
2021/05/08 05:08:03;;;;;;;6.27;3.70;;;6.70;75.60;;;;;;5069544;28;20427;-72
2021/05/08 05:10:29;;;;;;;7.13;4.10;;;6.80;75.60;;;;;;5053174;28;20052;-72
2021/05/08 05:12:59;;;;;;;7.13;3.73;;;6.80;75.50;;;;;;5071083;28;20044;-72
2021/05/08 05:15:26;;;;;;;6.17;3.17;;;6.80;75.50;;;;;;5063779;28;20430;-72
2021/05/08 05:17:54;;;;;;;5.30;3.40;;;6.80;75.50;;;;;;5070241;28;20040;-72
2021/05/08 05:20:21;;;;;;;5.30;3.00;;;6.90;75.40;;;;;;5073563;28;20033;-72
2021/05/08 05:22:48;;;;;;;5.03;3.13;;;7.00;75.40;;;;;;5073670;28;20033;-72
2021/05/08 05:25:14;;;;;;;5.57;2.67;;;7.00;75.20;;;;;;5073196;28;20037;-72
2021/05/08 05:27:41;;;;;;;3.70;2.03;;;7.10;75.20;;;;;;5074510;28;20044;-72
2021/05/08 05:30:10;;;;;;;4.83;2.53;;;7.10;75.20;;;;;;5074782;28;20070;-72
2021/05/08 05:32:37;;;;;;;5.43;2.83;;;7.10;75.90;;;;;;5073690;28;20090;-73
2021/05/08 05:35:04;;;;;;;4.47;2.47;;;7.10;75.20;;;;;;5074860;28;20048;-73
2021/05/08 05:37:31;;;;;;;5.07;3.10;;;7.20;75.20;;;;;;5061141;28;20037;-73
2021/05/08 05:39:57;;;;;;;5.47;3.57;;;7.20;75.10;;;;;;5073809;28;20076;-73
2021/05/08 05:42:24;;;;;;;5.37;3.03;;;7.30;75.00;;;;;;5073690;28;20040;-73
2021/05/08 05:44:51;;;;;;;6.20;3.23;;;7.40;74.80;;;;;;5073470;28;20439;-73
2021/05/08 05:47:21;;;;;;;5.43;2.80;;;7.50;74.80;;;;;;5053849;28;20049;-72
2021/05/08 05:49:54;;;;;;;5.33;3.13;;;7.60;74.60;;;;;;5073296;28;20147;-72
2021/05/08 05:52:21;;;;;;;4.77;2.77;;;7.70;74.40;;;;;;5073389;28;20056;-72
2021/05/08 05:54:49;;;;;;;4.73;2.57;;;7.70;74.20;;;;;;5074278;28;20033;-72
2021/05/08 05:57:16;;;;;;;4.93;2.57;;;7.80;74.20;;;;;;5080872;28;20396;-72
2021/05/08 05:59:43;;;;;;;5.50;2.93;;;8.00;74.20;;;;;;5073352;28;20044;-72
2021/05/08 06:02:11;;;;;;;5.33;2.47;;;8.10;74.00;;;;;;5054918;28;20052;-72
2021/05/08 06:04:38;;;;;;;3.90;2.20;;;8.20;73.70;;;;;;5072969;28;20037;-72
2021/05/08 06:07:05;;;;;;;4.07;1.95;;;8.30;73.70;;;;;;5071966;28;20571;-73
2021/05/08 06:09:32;;;;;;;4.57;2.20;;;8.40;73.60;;;;;;5073268;28;20045;-72
2021/05/08 06:11:59;;;;;;;4.80;2.67;;;8.40;73.40;;;;;;5066983;28;20045;-72
2021/05/08 06:14:27;;;;;;;3.50;1.88;;;8.50;73.30;;;;;;5074156;28;20119;-72
2021/05/08 06:16:56;;;;;;;5.50;2.60;;;8.60;73.10;;;;;;5074077;28;20040;-72
2021/05/08 06:19:24;;;;;;;5.72;2.97;;;8.70;72.90;;;;;;5073153;28;20056;-73
2021/05/08 06:21:51;;;;;;;3.70;1.75;;;8.90;72.70;;;;;;5074015;28;20048;-73
2021/05/08 06:24:18;;;;;;;4.28;2.22;;;8.90;72.50;;;;;;5073906;28;20119;-73
2021/05/08 06:26:45;;;;;;;4.13;2.17;;;9.00;72.40;;;;;;5072767;28;20487;-72
2021/05/08 06:29:11;;;;;;;4.65;2.35;;;9.10;72.30;;;;;;5073934;28;20503;-72
2021/05/08 06:31:38;;;;;;;3.38;2.22;;;9.10;72.20;;;;;;5072947;28;20094;-72
2021/05/08 06:34:05;;;;;;;4.53;2.80;;;9.20;72.10;;;;;;5072827;28;20048;-72
2021/05/08 06:36:31;;;;;;;3.97;2.45;;;9.20;72.00;;;;;;5072432;28;20151;-72
2021/05/08 06:38:58;;;;;;;3.47;2.15;;;9.30;72.00;;;;;;5052691;28;20049;-72
2021/05/08 06:41:25;;;;;;;3.30;2.03;;;9.40;71.90;;;;;;5072173;28;20051;-72
2021/05/08 06:43:51;;;;;;;3.42;1.95;;;9.40;71.70;;;;;;5056103;28;20036;-73
2021/05/08 06:46:18;;;;;;;5.63;2.47;;;9.50;71.50;;;;;;5073205;28;20041;-73
2021/05/08 06:48:44;;;;;;;3.72;2.20;;;9.60;72.00;;;;;;5073609;28;20048;-72
2021/05/08 06:51:12;;;;;;;3.97;2.45;;;9.70;71.20;;;;;;5071969;28;20052;-72
2021/05/08 06:53:40;;;;;;;3.58;2.20;;;9.70;71.00;;;;;;5072280;28;20078;-72
2021/05/08 06:56:07;;;;;;;4.43;2.03;;;9.80;70.80;;;;;;5072628;28;20397;-73
2021/05/08 06:58:34;;;;;;;4.60;2.60;;;9.90;70.70;;;;;;5071866;28;20129;-72
2021/05/08 07:01:01;;;;;;;4.13;2.40;;;10.00;70.60;;;;;;5071698;28;20072;-72
2021/05/08 07:03:28;;;;;;;3.25;1.60;;;10.00;70.30;;;;;;5073163;28;20037;-72
2021/05/08 07:05:57;;;;;;;4.55;1.60;;;10.10;70.20;;;;;;5051035;28;20068;-72
2021/05/08 07:08:24;;;;;;;4.57;2.33;;;10.10;70.10;;;;;;5055206;28;20048;-72
2021/05/08 07:10:52;;;;;;;3.00;1.75;;;10.20;70.10;;;;;;5072029;28;20105;-72
2021/05/08 07:13:20;;;;;;;4.13;1.98;;;10.20;69.90;;;;;;5071353;28;20051;-72
2021/05/08 07:15:57;;;;;;;5.88;2.10;;;10.30;69.80;;;;;;5071392;28;20056;-73
2021/05/08 07:18:24;;;;;;;4.45;1.88;;;10.30;69.50;;;;;;5073556;28;20052;-73
2021/05/08 07:20:52;;;;;;;2.83;1.60;;;10.40;70.10;;;;;;5072821;28;20128;-73
2021/05/08 07:23:23;;;;;;;4.50;2.60;;;10.40;69.40;;;;;;5072902;28;20143;-71
2021/05/08 07:25:53;;;;;;;3.60;1.90;;;10.50;69.20;;;;;;5074464;28;20037;-70
2021/05/08 07:28:23;;;;;;;3.03;1.90;;;10.60;69.10;;;;;;5054557;28;20094;-71
2021/05/08 07:30:52;;;;;;;5.13;1.90;;;10.60;68.90;;;;;;5063926;28;20071;-71
2021/05/08 07:33:19;;;;;;;3.58;2.00;;;10.70;68.80;;;;;;5064608;28;20049;-71
2021/05/08 07:35:46;;;;;;;4.38;2.20;;;10.80;68.70;;;;;;5071373;28;20043;-72
2021/05/08 07:38:14;;;;;;;3.88;2.30;;;10.90;68.50;;;;;;5066664;28;20044;-72
2021/05/08 07:40:41;;;;;;;3.42;1.80;;;11.00;68.40;;;;;;5072403;28;20439;-71
2021/05/08 07:43:36;;;;;;;3.33;1.70;;;11.10;68.30;;;;;;5070686;28;20066;-70
2021/05/08 07:46:07;;;;;;;3.65;2.05;;;11.20;68.10;;;;;;5065209;28;20041;-72
2021/05/08 07:48:33;;;;;;;2.85;1.80;;;11.40;68.00;;;;;;5072446;28;20763;-71
2021/05/08 07:51:00;;;;;;;3.08;1.88;;;11.50;67.70;;;;;;5052508;28;20053;-73
2021/05/08 07:53:26;;;;;;;2.92;1.60;;;11.60;67.40;;;;;;5070906;28;20040;-72
2021/05/08 07:55:53;;;;;;;2.40;1.40;;;11.70;67.20;;;;;;5070700;28;20062;-73
2021/05/08 07:58:22;;;;;;;2.78;1.60;;;11.80;67.10;;;;;;5071118;28;20045;-70
2021/05/08 08:00:48;;;;;;;3.08;1.58;;;11.90;67.00;;;;;;5072072;28;20370;-71
2021/05/08 08:03:15;;;;;;;3.67;1.83;;;11.90;66.80;;;;;;5083157;28;20110;-71
2021/05/08 08:05:54;;;;;;;2.97;1.58;;;12.00;66.70;;;;;;5075982;28;20044;-72
2021/05/08 08:08:28;;;;;;;3.50;1.23;;;12.00;66.60;;;;;;5072614;28;20474;-70
2021/05/08 08:10:56;;;;;;;3.63;1.60;;;12.00;66.50;;;;;;5070683;28;20471;-71
2021/05/08 08:13:23;;;;;;;3.50;1.45;;;12.00;66.40;;;;;;5071982;28;20110;-72
2021/05/08 08:15:49;;;;;;;2.95;1.55;;;12.00;66.30;;;;;;5081965;28;20051;-73
2021/05/08 08:18:16;;;;;;;3.08;1.45;;;12.10;66.80;;;;;;5056616;28;20044;-73
2021/05/08 08:20:42;;;;;;;4.00;2.00;;;12.10;66.00;;;;;;5070398;28;20045;-72
2021/05/08 08:23:09;;;;;;;4.78;1.90;;;12.20;65.70;;;;;;5070850;28;20044;-72
2021/05/08 08:25:35;;;;;;;3.97;1.35;;;12.10;65.50;;;;;;5064943;28;20158;-70
2021/05/08 08:28:02;;;;;;;2.63;1.45;;;12.20;65.50;;;;;;5069785;28;20064;-69
2021/05/08 08:30:28;;;;;;;4.38;1.95;;;12.30;65.50;;;;;;5070399;28;20036;-70
2021/05/08 08:32:55;;;;;;;2.75;1.80;;;12.30;65.00;;;;;;5056360;28;20053;-71
2021/05/08 08:35:22;;;;;;;3.22;1.55;;;12.30;64.80;;;;;;5074371;28;20044;-72
2021/05/08 08:37:49;;;;;;;2.22;1.05;;;12.30;64.80;;;;;;5071620;28;20068;-72
2021/05/08 08:40:16;;;;;;;3.35;1.63;;;12.40;64.80;;;;;;5069648;28;20040;-71
2021/05/08 08:42:42;;;;;;;2.60;1.45;;;12.50;64.40;;;;;;5053464;28;20041;-72
2021/05/08 08:45:10;;;;;;;3.05;1.55;;;12.50;64.40;;;;;;5051084;28;20047;-72
2021/05/08 08:47:37;;;;;;;4.20;1.92;;;12.50;64.30;;;;;;5053818;28;20126;-72
2021/05/08 08:50:08;;;;;;;3.20;1.73;;;12.50;64.20;;;;;;5070735;28;20052;-72
2021/05/08 08:52:36;;;;;;;3.40;1.55;;;12.60;64.20;;;;;;5070547;28;20040;-72
2021/05/08 08:55:04;;;;;;;4.28;1.73;;;12.70;64.00;;;;;;5070071;28;20044;-72
2021/05/08 08:57:36;;;;;;;4.00;1.65;;;12.80;63.90;;;;;;5068904;28;20132;-71
2021/05/08 09:00:13;;;;;;;2.45;1.20;;;12.90;63.80;;;;;;5060488;28;20385;-72
2021/05/08 09:02:48;;;;;;;2.55;1.25;;;13.00;63.60;;;;;;5070123;28;20044;-71
2021/05/08 09:05:24;;;;;;;4.47;1.67;;;13.10;64.10;;;;;;5067285;28;20094;-71
2021/05/08 09:07:52;;;;;;;3.80;1.58;;;13.20;63.20;;;;;;5071786;28;20400;-71
2021/05/08 09:10:30;;;;;;;3.03;1.00;;;13.20;63.00;;;;;;5069267;28;20499;-73
2021/05/08 09:12:59;;;;;;;3.13;1.75;;;13.40;62.80;;;;;;5070822;28;20048;-71
2021/05/08 09:15:43;;;;;;;2.83;1.55;;;13.40;62.60;;;;;;5071511;28;20486;-72
2021/05/08 09:18:31;;;;;;;3.67;1.83;;;13.60;62.50;;;;;;5071735;28;20040;-71
2021/05/08 09:21:02;;;;;;;2.72;1.27;;;13.60;62.20;;;;;;5069964;28;20040;-71
2021/05/08 09:23:40;;;;;;;3.55;1.60;;;13.80;62.10;;;;;;5053042;28;20041;-71
2021/05/08 09:26:10;;;;;;;3.65;1.40;;;14.00;61.80;;;;;;5041090;28;20098;-71
2021/05/08 09:28:39;;;;;;;4.82;1.60;;;14.10;61.60;;;;;;5073583;28;20044;-72
2021/05/08 09:31:11;;;;;;;3.72;2.25;;;14.20;61.30;;;;;;5070432;28;20055;-72
2021/05/08 09:33:39;;;;;;;3.47;1.58;;;14.30;61.80;;;;;;5070774;28;20047;-72
2021/05/08 09:36:10;;;;;;;4.70;2.08;;;14.30;61.00;;;;;;5054125;28;20049;-72
2021/05/08 09:38:39;;;;;;;3.95;1.60;;;14.50;60.80;;;;;;5051529;28;20132;-72
2021/05/08 09:41:11;;;;;;;3.20;1.58;;;14.50;60.70;;;;;;5071820;28;20037;-71
2021/05/08 09:43:37;;;;;;;3.45;2.10;;;14.50;60.40;;;;;;5069607;28;20455;-71
2021/05/08 09:46:09;;;;;;;2.53;1.30;;;14.50;60.20;;;;;;5070268;28;20141;-71
2021/05/08 09:48:37;;;;;;;2.85;1.45;;;14.50;60.10;;;;;;5071225;28;20040;-71
2021/05/08 09:51:28;;;;;;;3.17;1.80;;;14.60;60.20;;;;;;5071540;28;20055;-71
2021/05/08 09:54:03;;;;;;;3.67;1.35;;;14.60;60.00;;;;;;5071419;28;20098;-72
2021/05/08 09:56:47;;;;;;;2.83;1.40;;;14.60;59.70;;;;;;5071713;28;20400;-72
2021/05/08 09:59:23;;;;;;;3.15;1.10;;;14.60;59.70;;;;;;5070301;28;20040;-72
2021/05/08 10:02:12;;;;;;;2.97;1.20;;;14.70;59.50;;;;;;5070192;28;20056;-72
2021/05/08 10:04:49;;;;;;;3.88;1.30;;;14.80;59.20;;;;;;5071082;28;20037;-72
2021/05/08 10:07:25;;;;;;;3.00;1.33;;;14.80;58.90;;;;;;5072308;28;20037;-72
2021/05/08 10:09:56;;;;;;;4.50;1.10;;;14.90;58.70;;;;;;5072191;28;20044;-72
2021/05/08 10:12:28;;;;;;;3.00;1.13;;;14.90;58.80;;;;;;5074776;28;20036;-72
2021/05/08 10:14:57;;;;;;;;;;;15.00;58.80;;;;;;5070709;28;20101;-72
2021/05/08 10:17:27;;;;;;;3.03;1.00;;;15.00;58.80;;;;;;5074531;28;19920;-72
2021/05/08 10:20:08;;;;;;;2.75;0.88;;;15.10;58.60;;;;;;5072072;28;20048;-72
2021/05/08 10:22:42;;;;;;;2.97;1.25;;;15.10;58.50;;;;;;5073953;28;20105;-72
2021/05/08 10:25:10;;;;;;;3.28;1.40;;;15.30;58.30;;;;;;5072439;28;20059;-72
2021/05/08 10:27:37;;;;;;;3.35;1.27;;;15.30;58.10;;;;;;5065086;28;20452;-72
2021/05/08 10:30:09;;;;;;;2.35;1.02;;;15.30;58.20;;;;;;5066925;28;20480;-73
2021/05/08 10:32:41;;;;;;;3.67;1.10;;;15.40;58.00;;;;;;5071067;28;20036;-73
2021/05/08 10:35:10;;;;;;;1.77;0.88;;;15.40;57.70;;;;;;5076211;28;20079;-72
2021/05/08 10:37:38;;;;;;;1.98;0.85;;;15.30;57.80;;;;;;5074969;28;20480;-73
2021/05/08 10:40:06;;;;;;;2.30;0.80;;;15.30;57.60;;;;;;5074355;28;20105;-73
2021/05/08 10:42:47;;;;;;;2.47;1.10;;;15.30;57.70;;;;;;5074648;28;20040;-73
2021/05/08 10:45:20;;;;;;;3.85;1.45;;;15.40;57.30;;;;;;5074508;28;20040;-73
2021/05/08 10:47:53;;;;;;;2.28;1.35;;;15.50;57.30;;;;;;5077504;28;21437;-73
2021/05/08 10:50:34;;;;;;;2.00;0.63;;;15.50;57.30;;;;;;5074627;28;20037;-72
2021/05/08 10:53:00;;;;;;;2.05;0.68;;;15.50;57.00;;;;;;5083218;28;20048;-73
2021/05/08 10:55:48;;;;;;;1.45;0.50;;;15.50;57.30;;;;;;5073156;28;20550;-72
2021/05/08 10:58:15;;;;;;;1.70;0.68;;;15.60;57.20;;;;;;5072509;28;20578;-72
2021/05/08 11:00:46;;;;;;;2.08;0.68;;;15.60;57.10;;;;;;5072619;28;20052;-72
2021/05/08 11:03:13;;;;;;;2.17;0.70;;;15.60;56.80;;;;;;5073865;28;20496;-71
2021/05/08 11:05:50;;;;;;;3.22;0.60;;;15.50;57.00;;;;;;5073662;28;20036;-71
2021/05/08 11:08:26;;;;;;;1.73;0.60;;;15.50;57.20;;;;;;5071481;28;20041;-71
2021/05/08 11:10:56;;;;;;;2.58;0.93;;;15.40;57.60;;;;;;5072154;28;20044;-72
2021/05/08 11:13:27;;;;;;;2.35;0.90;;;15.20;57.40;;;;;;5071712;28;20480;-71
2021/05/08 11:15:54;;;;;;;2.05;0.68;;;15.00;57.50;;;;;;5072669;28;20052;-71
2021/05/08 11:18:32;;;;;;;1.77;0.90;;;14.90;57.90;;;;;;5072280;28;20434;-71
2021/05/08 11:21:00;;;;;;;2.03;0.98;;;14.80;58.10;;;;;;5066157;28;20106;-72
2021/05/08 11:23:39;;;;;;;2.30;0.60;;;14.70;58.80;;;;;;5069342;28;20044;-72
2021/05/08 11:26:30;;;;;;;1.70;0.95;;;14.60;58.50;;;;;;5072778;28;20476;-72
2021/05/08 11:28:58;;;;;;;1.60;0.70;;;14.50;58.80;;;;;;5071873;28;20041;-71
2021/05/08 11:31:38;;;;;;;1.85;0.73;;;14.40;59.00;;;;;;5068689;28;20037;-73
2021/05/08 11:34:15;;;;;;;2.67;0.70;;;14.40;59.20;;;;;;5072665;28;20044;-72
2021/05/08 11:36:50;;;;;;;1.73;0.80;;;14.30;59.50;;;;;;5072959;28;20044;-73
2021/05/08 11:39:25;;;;;;;1.83;0.60;;;14.30;59.60;;;;;;5062267;28;20048;-73
2021/05/08 11:42:03;;;;;;;3.40;0.60;;;14.30;59.80;;;;;;5066693;28;20403;-72
2021/05/08 11:44:37;;;;;;;1.90;0.93;;;14.30;60.00;;;;;;5071238;28;20040;-75
2021/05/08 11:50:03;;;;;;;2.20;0.90;;;14.10;60.50;;;;;;5072842;28;20044;-73
2021/05/08 11:52:52;;;;;;;3.78;1.13;;;13.90;61.00;;;;;;5071662;28;20051;-73
2021/05/08 11:55:20;;;;;;;1.85;0.80;;;13.80;61.60;;;;;;5052700;28;20049;-73
2021/05/08 11:57:58;;;;;;;1.73;0.70;;;13.60;62.00;;;;;;5067426;28;20059;-72
2021/05/08 12:00:29;;;;;;;1.85;0.70;;;13.50;63.10;;;;;;5076566;28;20044;-73
2021/05/08 12:03:10;;;;;;;2.00;0.70;;;13.40;63.10;;;;;;5065513;28;20784;-72
2021/05/08 12:05:41;;;;;;;1.35;0.75;;;13.30;63.80;;;;;;5063893;28;20036;-73
2021/05/08 12:08:09;;;;;;;3.13;0.80;;;13.10;64.40;;;;;;5066084;28;20385;-73
2021/05/08 12:10:37;;;;;;;1.67;0.77;;;13.00;65.10;;;;;;5063149;28;20123;-72
2021/05/08 12:13:05;;;;;;;2.22;0.90;;;12.90;65.80;;;;;;5060835;28;20558;-72
2021/05/08 12:15:33;;;;;;;3.03;0.88;;;12.70;66.40;;;;;;5056295;28;20048;-73
2021/05/08 12:18:05;;;;;;;1.63;0.70;;;12.50;67.20;;;;;;5070595;28;20111;-72
2021/05/08 12:20:46;;;;;;;2.08;1.00;;;12.30;68.10;;;;;;5047488;28;20051;-74
2021/05/08 12:23:18;;;;;;;1.92;0.70;;;12.20;68.80;;;;;;5058590;28;20045;-72
2021/05/08 12:26:10;;;;;;;1.80;0.65;;;12.20;69.70;;;;;;5069903;28;20044;-73
2021/05/08 12:28:43;;;;;;;1.35;0.60;;;12.10;71.40;;;;;;5066956;28;20147;-74
2021/05/08 12:31:30;;;;;;;2.00;1.10;;;11.90;71.90;;;;;;5069430;28;20138;-72
2021/05/08 12:34:05;;;;;;;3.10;0.90;;;11.90;73.20;;;;;;5069272;28;20044;-74
2021/05/08 12:36:34;;;;;;;1.67;0.80;;;11.80;73.50;;;;;;5067951;28;20043;-73
2021/05/08 12:39:21;;;;;;;1.85;0.85;;;11.80;74.20;;;;;;5067767;28;20500;-73
2021/05/08 12:42:01;;;;;;;1.75;0.80;;;11.90;75.10;;;;;;5066036;28;20056;-72
2021/05/08 12:44:33;;;;;;;1.50;0.77;;;11.90;75.20;;;;;;5072578;28;20408;-72
2021/05/08 12:47:04;;;;;;;1.77;0.60;;;11.90;75.50;;;;;;5072457;28;20438;-74
2021/05/08 12:49:32;;;;;;;1.33;0.55;;;12.00;75.80;;;;;;5071239;28;20037;-74
2021/05/08 12:52:23;;;;;;;1.42;0.50;;;12.00;76.30;;;;;;5069678;28;20051;-76
2021/05/08 12:54:50;;;;;;;2.58;0.80;;;12.00;77.00;;;;;;5060135;28;20045;-76
2021/05/08 12:57:17;;;;;;;3.28;1.33;;;12.00;77.00;;;;;;5064995;28;20098;-76
2021/05/08 12:59:56;;;;;;;1.95;0.73;;;12.10;77.30;;;;;;5066849;28;20048;-73
2021/05/08 13:02:25;;;;;;;1.80;0.80;;;12.00;77.80;;;;;;5048097;28;20496;-74
2021/05/08 13:04:53;;;;;;;1.42;0.70;;;12.00;77.90;;;;;;5063003;28;20036;-75
2021/05/08 13:07:24;;;;;;;1.60;0.82;;;12.00;78.30;;;;;;5071576;28;20044;-77
2021/05/08 13:10:13;;;;;;;2.00;0.80;;;12.00;78.60;;;;;;5066490;28;20091;-73